Time;durP1;ratioP1;P1;durP2;ratioP2;P2;SDS_P1;SDS_P2;PMS_P1;PMS_P2;Temp;Humidity;BMP_temperature;BMP_pressure;BME280_temperature;BME280_humidity;BME280_pressure;Samples;Min_cycle;Max_cycle;Signal;HPM_P1;HPM_P2
2021/04/05 00:02:24;;;;;;;2.47;1.83;;;17.70;50.80;;;;;;4882722;29;20206;-67
2021/04/05 00:04:50;;;;;;;3.53;2.13;;;17.70;50.80;;;;;;4883057;29;20193;-66
2021/04/05 00:07:16;;;;;;;2.95;2.20;;;17.70;50.80;;;;;;4868542;29;20180;-82
2021/04/05 00:09:41;;;;;;;2.33;2.10;;;17.70;50.80;;;;;;4882310;29;20228;-73
2021/04/05 00:12:08;;;;;;;3.25;2.00;;;17.70;50.80;;;;;;4899917;29;20184;-79
2021/04/05 00:14:34;;;;;;;2.40;1.90;;;17.70;50.80;;;;;;4867394;29;20191;-72
2021/04/05 00:16:59;;;;;;;2.60;2.40;;;17.70;50.80;;;;;;4899360;29;20547;-74
2021/04/05 00:19:25;;;;;;;2.67;2.30;;;17.60;50.70;;;;;;4882848;29;20544;-65
2021/04/05 00:21:50;;;;;;;2.70;2.08;;;17.60;50.70;;;;;;4883218;29;20603;-77
2021/04/05 00:24:16;;;;;;;2.47;2.28;;;17.70;50.80;;;;;;4882285;29;20187;-76
2021/04/05 00:26:42;;;;;;;2.35;2.00;;;17.60;50.70;;;;;;4899803;29;20183;-77
2021/04/05 00:29:07;;;;;;;2.45;1.83;;;17.60;50.70;;;;;;4883199;29;20220;-74
2021/04/05 00:31:33;;;;;;;2.40;2.20;;;17.60;50.70;;;;;;4898955;29;20173;-75
2021/04/05 00:33:58;;;;;;;2.22;2.08;;;17.60;50.70;;;;;;4899547;29;20185;-69
2021/04/05 00:36:24;;;;;;;2.28;2.03;;;17.60;50.60;;;;;;4866515;29;20183;-66
2021/04/05 00:38:49;;;;;;;3.03;2.55;;;17.60;50.70;;;;;;4882774;29;20238;-70
2021/04/05 00:41:15;;;;;;;2.22;2.00;;;17.60;50.60;;;;;;4882672;29;20176;-68
2021/04/05 00:43:45;;;;;;;3.85;2.55;;;17.60;50.60;;;;;;4866389;29;20173;-75
2021/04/05 00:46:11;;;;;;;2.55;1.73;;;17.60;50.70;;;;;;4899590;29;20213;-74
2021/04/05 00:48:37;;;;;;;4.03;2.55;;;17.50;50.60;;;;;;4851404;29;20704;-67
2021/04/05 00:51:13;;;;;;;3.15;2.00;;;17.50;50.60;;;;;;4866713;29;20541;-77
2021/04/05 00:53:42;;;;;;;2.17;1.80;;;17.50;50.00;;;;;;4882266;29;20552;-78
2021/04/05 00:56:08;;;;;;;3.65;2.40;;;17.50;50.60;;;;;;4899312;29;20653;-70
2021/04/05 00:58:34;;;;;;;3.30;2.30;;;17.50;50.60;;;;;;4881790;29;20195;-77
2021/04/05 01:01:01;;;;;;;2.67;2.25;;;17.50;50.70;;;;;;4899321;29;20520;-67
2021/04/05 01:03:31;;;;;;;3.25;2.20;;;17.50;50.60;;;;;;4898988;29;20176;-79
2021/04/05 01:05:58;;;;;;;2.75;2.00;;;17.50;50.70;;;;;;4882006;29;20173;-66
2021/04/05 01:08:23;;;;;;;3.58;2.10;;;17.50;50.60;;;;;;4898871;29;20211;-66
2021/04/05 01:10:49;;;;;;;2.20;2.03;;;17.50;50.60;;;;;;4898769;29;20224;-67
2021/04/05 01:13:15;;;;;;;2.28;1.88;;;17.50;50.60;;;;;;4866271;29;20226;-67
2021/04/05 01:15:42;;;;;;;2.63;2.10;;;17.50;50.60;;;;;;4881393;29;20168;-68
2021/04/05 01:18:07;;;;;;;3.20;2.10;;;17.50;50.70;;;;;;4866717;29;20184;-67
2021/04/05 01:20:33;;;;;;;2.80;2.40;;;17.50;50.70;;;;;;4865774;29;20207;-76
2021/04/05 01:22:59;;;;;;;2.28;2.00;;;17.40;50.60;;;;;;4898867;29;20264;-66
2021/04/05 01:25:25;;;;;;;2.47;2.00;;;17.40;50.60;;;;;;4898297;29;20652;-66
2021/04/05 01:27:51;;;;;;;2.40;2.20;;;17.40;50.60;;;;;;4897954;29;20196;-76
2021/04/05 01:30:30;;;;;;;2.38;2.17;;;17.40;50.70;;;;;;4898681;29;20307;-66
2021/04/05 01:33:10;;;;;;;2.83;2.17;;;17.40;50.70;;;;;;4867341;29;20272;-66
2021/04/05 01:35:45;;;;;;;2.72;2.30;;;17.40;50.70;;;;;;4881468;29;20637;-81
2021/04/05 01:38:12;;;;;;;3.80;2.60;;;17.40;50.70;;;;;;4881969;29;20172;-73
2021/04/05 01:40:39;;;;;;;3.83;2.17;;;17.40;50.70;;;;;;4880794;29;20169;-74
2021/04/05 01:43:05;;;;;;;3.97;2.30;;;17.40;51.30;;;;;;4881691;29;20177;-75
2021/04/05 01:45:31;;;;;;;3.42;2.50;;;17.40;51.30;;;;;;4865924;29;20175;-67
2021/04/05 01:47:56;;;;;;;3.22;2.30;;;17.40;50.70;;;;;;4865547;29;20208;-74
2021/04/05 01:50:22;;;;;;;2.28;2.08;;;17.40;50.70;;;;;;4865916;29;20514;-74
2021/04/05 01:52:47;;;;;;;3.85;2.30;;;17.30;50.70;;;;;;4850684;29;20232;-67
2021/04/05 01:55:13;;;;;;;2.33;2.13;;;17.30;50.70;;;;;;4865472;29;20168;-78
2021/04/05 01:57:39;;;;;;;2.88;2.47;;;17.30;50.70;;;;;;4881222;29;20184;-67
2021/04/05 02:00:07;;;;;;;3.50;2.45;;;17.30;50.70;;;;;;4898156;29;20168;-76
2021/04/05 02:02:34;;;;;;;2.63;2.35;;;17.30;50.70;;;;;;4897430;29;20178;-79
2021/04/05 02:04:59;;;;;;;2.80;2.50;;;17.30;50.70;;;;;;4865830;29;20613;-69
2021/04/05 02:07:25;;;;;;;3.42;2.63;;;17.30;50.70;;;;;;4880957;29;20196;-78
2021/04/05 02:09:50;;;;;;;2.70;2.45;;;17.30;50.80;;;;;;4865082;29;20227;-80
2021/04/05 02:12:16;;;;;;;4.35;2.47;;;17.30;50.70;;;;;;4850420;29;20176;-68
2021/04/05 02:14:42;;;;;;;3.63;2.75;;;17.30;50.70;;;;;;4880850;29;20188;-78
2021/04/05 02:17:07;;;;;;;2.47;2.28;;;17.30;51.40;;;;;;4897222;29;20208;-79
2021/04/05 02:19:33;;;;;;;3.40;2.35;;;17.30;50.70;;;;;;4865538;29;20184;-79
2021/04/05 02:21:58;;;;;;;3.28;2.88;;;17.30;50.70;;;;;;4865082;29;20176;-66
2021/04/05 02:24:24;;;;;;;4.28;3.17;;;17.30;50.80;;;;;;4865322;29;20261;-78
2021/04/05 02:26:50;;;;;;;3.92;2.63;;;17.30;50.70;;;;;;4865141;29;20181;-69
2021/04/05 02:29:18;;;;;;;3.20;2.55;;;17.20;50.70;;;;;;4879924;29;20231;-66
2021/04/05 02:31:44;;;;;;;3.25;2.35;;;17.20;51.40;;;;;;4865448;29;20664;-67
2021/04/05 02:34:13;;;;;;;2.70;2.50;;;17.20;50.70;;;;;;4865367;29;20724;-79
2021/04/05 02:36:39;;;;;;;3.25;2.60;;;17.30;50.80;;;;;;4880080;29;20893;-67
2021/04/05 02:39:10;;;;;;;4.38;2.55;;;17.20;51.40;;;;;;4881047;29;20176;-67
2021/04/05 02:41:40;;;;;;;2.40;2.20;;;17.20;50.70;;;;;;4865489;29;20259;-75
2021/04/05 02:44:06;;;;;;;2.58;2.33;;;17.20;50.70;;;;;;4865084;29;20172;-76
2021/04/05 02:46:34;;;;;;;3.55;2.20;;;17.20;50.70;;;;;;4865326;29;20627;-68
2021/04/05 02:49:00;;;;;;;2.67;2.45;;;17.20;50.80;;;;;;4865244;29;20208;-66
2021/04/05 02:51:26;;;;;;;3.42;2.63;;;17.20;50.80;;;;;;4864582;29;20180;-66
2021/04/05 02:54:01;;;;;;;2.80;2.38;;;17.20;50.80;;;;;;4865131;29;20172;-66
2021/04/05 02:56:30;;;;;;;3.17;2.67;;;17.10;50.80;;;;;;4865231;29;20697;-78
2021/04/05 02:58:56;;;;;;;3.25;2.72;;;17.20;50.80;;;;;;4865105;29;20173;-67
2021/04/05 03:01:23;;;;;;;3.15;2.53;;;17.20;50.80;;;;;;4865309;29;20205;-81
2021/04/05 03:03:48;;;;;;;4.63;2.70;;;17.20;50.80;;;;;;4865166;29;20185;-65
2021/04/05 03:06:19;;;;;;;3.22;2.22;;;17.10;50.80;;;;;;4880343;29;20183;-65
2021/04/05 03:08:45;;;;;;;2.75;2.33;;;17.10;50.90;;;;;;4881143;29;20207;-78
2021/04/05 03:11:12;;;;;;;3.97;2.58;;;17.10;50.80;;;;;;4879989;29;20180;-66
2021/04/05 03:13:37;;;;;;;2.85;2.58;;;17.10;50.90;;;;;;4865122;29;20199;-76
2021/04/05 03:16:04;;;;;;;2.30;2.10;;;17.10;50.90;;;;;;4880854;29;20629;-66
2021/04/05 03:18:29;;;;;;;3.25;2.85;;;17.10;50.90;;;;;;4864530;29;20173;-67
2021/04/05 03:20:55;;;;;;;5.07;2.85;;;17.10;50.90;;;;;;4865119;29;20658;-66
2021/04/05 03:23:24;;;;;;;3.33;2.40;;;17.10;50.90;;;;;;4880421;29;20299;-66
2021/04/05 03:25:50;;;;;;;2.95;2.47;;;17.10;50.90;;;;;;4879824;29;20268;-66
2021/04/05 03:28:17;;;;;;;2.45;2.20;;;17.10;50.90;;;;;;4880550;29;20215;-65
2021/04/05 03:30:48;;;;;;;4.10;2.60;;;17.10;50.90;;;;;;4880584;29;20263;-66
2021/04/05 03:33:22;;;;;;;3.03;2.45;;;17.10;50.90;;;;;;4864771;29;20220;-69
2021/04/05 03:35:52;;;;;;;3.33;2.50;;;17.10;50.90;;;;;;4880373;29;20191;-67
2021/04/05 03:38:18;;;;;;;3.55;3.10;;;17.10;51.50;;;;;;4865437;29;20264;-78
2021/04/05 03:40:43;;;;;;;2.70;2.40;;;17.10;50.90;;;;;;4883228;29;20177;-66
2021/04/05 03:43:39;;;;;;;2.60;2.40;;;17.10;50.90;;;;;;4853062;29;20536;-67
2021/04/05 03:46:19;;;;;;;3.00;2.70;;;17.00;51.00;;;;;;4871588;29;20200;-75
2021/04/05 03:49:00;;;;;;;2.55;2.28;;;17.00;50.90;;;;;;4854288;29;20643;-67
2021/04/05 03:51:35;;;;;;;3.63;2.45;;;17.00;51.00;;;;;;4883715;29;20176;-66
2021/04/05 03:54:11;;;;;;;3.85;2.58;;;17.00;51.00;;;;;;4867678;29;20183;-67
2021/04/05 03:56:44;;;;;;;4.25;2.65;;;17.00;51.00;;;;;;4900238;29;20169;-74
2021/04/05 03:59:18;;;;;;;3.80;2.33;;;17.00;50.90;;;;;;4868022;29;20176;-67
2021/04/05 04:01:47;;;;;;;3.13;2.50;;;17.00;51.00;;;;;;4868313;29;20248;-67
2021/04/05 04:04:18;;;;;;;2.30;2.10;;;17.00;50.90;;;;;;4868761;29;20510;-67
2021/04/05 04:06:54;;;;;;;2.50;2.30;;;17.10;51.00;;;;;;4884598;29;20700;-66
2021/04/05 04:09:20;;;;;;;2.85;2.50;;;17.00;50.90;;;;;;4869520;29;20232;-66
2021/04/05 04:11:48;;;;;;;3.00;2.38;;;17.00;51.60;;;;;;4883667;29;20241;-79
2021/04/05 04:14:13;;;;;;;3.65;2.72;;;17.00;51.00;;;;;;4868035;29;20180;-67
2021/04/05 04:16:39;;;;;;;2.60;2.25;;;17.00;51.00;;;;;;4867079;29;20239;-68
2021/04/05 04:19:05;;;;;;;2.80;2.60;;;17.00;51.00;;;;;;4867938;29;20177;-67
2021/04/05 04:21:31;;;;;;;3.35;2.38;;;17.00;51.10;;;;;;4866951;29;20173;-66
2021/04/05 04:23:57;;;;;;;2.88;2.40;;;17.00;51.00;;;;;;4882982;29;20187;-78
2021/04/05 04:26:23;;;;;;;2.85;2.55;;;17.00;51.00;;;;;;4867678;29;20180;-78
2021/04/05 04:28:49;;;;;;;3.53;2.53;;;16.90;51.00;;;;;;4882362;29;20209;-69
2021/04/05 04:31:15;;;;;;;3.15;2.67;;;16.90;51.00;;;;;;4899776;29;20188;-75
2021/04/05 04:33:41;;;;;;;3.42;2.75;;;16.90;51.00;;;;;;4867372;29;20268;-67
2021/04/05 04:36:06;;;;;;;3.08;2.47;;;16.90;51.00;;;;;;4866755;29;20276;-79
2021/04/05 04:38:32;;;;;;;3.35;3.08;;;16.90;51.00;;;;;;4899428;29;20180;-66
2021/04/05 04:40:58;;;;;;;4.10;2.40;;;17.00;51.10;;;;;;4883010;29;20533;-67
2021/04/05 04:43:23;;;;;;;3.08;2.78;;;16.90;51.00;;;;;;4866624;29;20228;-75
2021/04/05 04:45:49;;;;;;;3.28;2.50;;;16.90;51.00;;;;;;4882763;29;20177;-66
2021/04/05 04:48:14;;;;;;;3.80;2.53;;;16.90;51.10;;;;;;4899724;29;20256;-73
2021/04/05 04:50:40;;;;;;;2.50;2.28;;;16.90;51.70;;;;;;4881019;29;20208;-66
2021/04/05 04:53:06;;;;;;;3.22;2.63;;;16.90;51.00;;;;;;4851825;29;20275;-73
2021/04/05 04:55:31;;;;;;;4.32;2.20;;;16.90;51.10;;;;;;4882229;29;20271;-76
2021/04/05 04:57:58;;;;;;;2.60;2.20;;;16.90;51.10;;;;;;4866429;29;20567;-69
2021/04/05 05:00:25;;;;;;;2.78;2.53;;;16.90;51.10;;;;;;4866889;29;20179;-66
2021/04/05 05:02:50;;;;;;;2.58;2.38;;;16.90;51.10;;;;;;4866930;29;20176;-76
2021/04/05 05:05:16;;;;;;;3.15;2.63;;;16.90;51.10;;;;;;4866589;29;20192;-78
2021/04/05 05:07:42;;;;;;;2.90;2.60;;;16.90;51.20;;;;;;4882199;29;20180;-80
2021/04/05 05:10:10;;;;;;;3.85;2.50;;;16.90;51.10;;;;;;4866548;29;20594;-66
2021/04/05 05:12:39;;;;;;;4.20;2.67;;;16.90;51.10;;;;;;4866063;29;20180;-79
2021/04/05 05:15:09;;;;;;;3.45;2.53;;;16.90;51.20;;;;;;4851646;29;20191;-79
2021/04/05 05:17:43;;;;;;;3.38;2.53;;;17.00;51.20;;;;;;4882021;29;20177;-76
2021/04/05 05:20:09;;;;;;;3.25;2.33;;;17.20;51.10;;;;;;4881981;29;20200;-66
2021/04/05 05:22:36;;;;;;;3.05;2.50;;;17.30;50.90;;;;;;4881770;29;20177;-67
2021/04/05 05:25:03;;;;;;;3.80;2.10;;;17.50;50.80;;;;;;4881284;29;20180;-77
2021/04/05 05:27:29;;;;;;;2.47;2.28;;;17.70;50.50;;;;;;4866406;29;20208;-67
2021/04/05 05:29:54;;;;;;;2.75;2.30;;;17.80;50.20;;;;;;4882005;29;20645;-69
2021/04/05 05:32:21;;;;;;;2.85;2.10;;;18.00;50.00;;;;;;4881196;29;20187;-66
2021/04/05 05:34:47;;;;;;;2.80;2.05;;;18.20;49.80;;;;;;4866527;29;20180;-67
2021/04/05 05:37:14;;;;;;;3.42;2.03;;;18.30;49.60;;;;;;4866604;29;20199;-76
2021/04/05 05:39:40;;;;;;;3.70;2.08;;;18.30;49.50;;;;;;4865691;29;20240;-66
2021/04/05 05:42:25;;;;;;;2.20;2.00;;;18.40;49.30;;;;;;4866125;29;20683;-76
2021/04/05 05:45:01;;;;;;;2.50;2.00;;;18.50;49.10;;;;;;4898278;29;20224;-65
2021/04/05 05:47:59;;;;;;;2.17;1.98;;;18.60;48.90;;;;;;4881680;29;20180;-64
2021/04/05 05:50:33;;;;;;;2.50;1.73;;;18.70;48.80;;;;;;4867292;29;20208;-72
2021/04/05 05:53:28;;;;;;;3.67;2.15;;;18.70;48.70;;;;;;4865869;29;20179;-66
2021/04/05 05:56:00;;;;;;;2.95;2.10;;;18.80;48.70;;;;;;4881345;29;20195;-64
2021/04/05 05:58:46;;;;;;;2.08;1.88;;;18.80;48.70;;;;;;4881195;29;20371;-64
2021/04/05 06:01:42;;;;;;;2.22;2.03;;;18.80;48.60;;;;;;4880613;29;20696;-64
2021/04/05 06:04:36;;;;;;;3.47;1.95;;;18.80;48.70;;;;;;4898192;29;20732;-65
2021/04/05 06:07:17;;;;;;;2.45;1.77;;;18.70;48.80;;;;;;4865251;29;20560;-80
2021/04/05 06:10:21;;;;;;;2.53;2.05;;;18.60;49.00;;;;;;4865876;29;20688;-65
2021/04/05 06:12:49;;;;;;;2.70;1.75;;;18.50;49.20;;;;;;4898137;29;20604;-65
2021/04/05 06:15:19;;;;;;;1.85;1.60;;;18.50;49.40;;;;;;4897217;29;20173;-76
2021/04/05 06:18:05;;;;;;;2.42;1.75;;;18.40;49.40;;;;;;4881816;29;20177;-66
2021/04/05 06:20:38;;;;;;;2.38;1.90;;;18.30;49.60;;;;;;4897539;29;20184;-67
2021/04/05 06:23:23;;;;;;;1.90;1.70;;;18.20;49.70;;;;;;4880391;29;20255;-80
2021/04/05 06:26:23;;;;;;;1.83;1.70;;;18.10;49.90;;;;;;4897499;29;20169;-66
2021/04/05 06:29:16;;;;;;;1.70;1.55;;;18.10;50.00;;;;;;4882399;29;20212;-65
2021/04/05 06:32:00;;;;;;;1.75;1.60;;;18.00;50.10;;;;;;4883375;29;20187;-66
2021/04/05 06:34:35;;;;;;;2.20;1.90;;;17.90;50.20;;;;;;4880750;29;20333;-66
2021/04/05 06:37:37;;;;;;;1.80;1.60;;;17.80;50.30;;;;;;4880427;29;20176;-66
2021/04/05 06:40:08;;;;;;;2.05;1.67;;;17.80;50.40;;;;;;4897679;29;20176;-79
2021/04/05 06:42:43;;;;;;;1.77;1.63;;;17.80;50.50;;;;;;4880068;29;20180;-66
2021/04/05 06:45:29;;;;;;;1.90;1.80;;;17.80;50.50;;;;;;4880703;29;20179;-72
2021/04/05 06:48:27;;;;;;;2.45;1.58;;;17.90;50.50;;;;;;4880878;29;20176;-67
2021/04/05 06:51:05;;;;;;;2.30;1.75;;;17.90;50.50;;;;;;4851516;29;20181;-66
2021/04/05 06:54:06;;;;;;;3.10;1.70;;;17.90;50.60;;;;;;4897484;29;20168;-66
2021/04/05 06:56:46;;;;;;;4.10;2.22;;;17.90;50.70;;;;;;4864545;29;20176;-67
2021/04/05 06:59:31;;;;;;;4.10;2.15;;;17.80;50.70;;;;;;4897480;29;20172;-67
2021/04/05 07:02:15;;;;;;;2.00;1.77;;;17.80;50.80;;;;;;4897320;29;20276;-68
2021/04/05 07:04:45;;;;;;;2.00;1.80;;;17.80;51.00;;;;;;4896394;29;20172;-68
2021/04/05 07:07:33;;;;;;;5.20;1.67;;;17.70;51.10;;;;;;4880685;29;20272;-68
2021/04/05 07:10:12;;;;;;;2.22;1.60;;;17.80;51.30;;;;;;4882975;29;20351;-68
2021/04/05 07:13:07;;;;;;;2.65;1.63;;;17.80;51.40;;;;;;4865468;29;20173;-68
2021/04/05 07:15:42;;;;;;;2.33;1.70;;;17.80;51.40;;;;;;4854768;29;20523;-73
2021/04/05 07:18:26;;;;;;;3.80;1.35;;;17.80;51.30;;;;;;4900461;29;20180;-65
2021/04/05 07:21:34;;;;;;;3.58;1.73;;;17.80;51.50;;;;;;4901048;29;20252;-73
2021/04/05 07:24:30;;;;;;;9.48;1.77;;;17.70;51.60;;;;;;4875305;29;20180;-69
2021/04/05 07:27:11;;;;;;;2.53;1.73;;;17.80;51.80;;;;;;4892363;29;20170;-69
2021/04/05 07:29:49;;;;;;;2.83;1.70;;;17.70;51.80;;;;;;4856307;29;20272;-69
2021/04/05 07:32:33;;;;;;;4.07;1.70;;;17.70;51.90;;;;;;4888617;29;20173;-68
2021/04/05 07:35:20;;;;;;;3.10;1.88;;;17.70;51.90;;;;;;4891483;29;20543;-69
2021/04/05 07:38:04;;;;;;;2.03;1.38;;;17.70;52.00;;;;;;4870846;29;20657;-68
2021/04/05 07:40:29;;;;;;;4.10;1.67;;;17.80;51.90;;;;;;4871907;29;20172;-68
2021/04/05 07:43:04;;;;;;;2.00;1.58;;;17.90;52.00;;;;;;4872048;29;20174;-70
2021/04/05 07:45:46;;;;;;;3.17;1.58;;;17.90;51.90;;;;;;4884498;29;20601;-70
2021/04/05 07:48:31;;;;;;;3.90;1.45;;;17.90;51.90;;;;;;4865125;29;20216;-68
2021/04/05 07:51:07;;;;;;;2.28;1.55;;;17.90;51.90;;;;;;4881700;29;20173;-70
2021/04/05 07:53:57;;;;;;;2.45;1.40;;;17.90;51.90;;;;;;4865577;29;20181;-70
2021/04/05 07:56:28;;;;;;;2.15;1.33;;;17.80;51.90;;;;;;4880572;29;20193;-69
2021/04/05 07:58:56;;;;;;;1.77;1.35;;;17.80;51.90;;;;;;4849505;29;20177;-66
2021/04/05 08:01:30;;;;;;;3.00;1.33;;;17.80;52.10;;;;;;4880724;29;20646;-63
2021/04/05 08:04:15;;;;;;;1.70;0.90;;;17.80;51.90;;;;;;4849593;29;20664;-66
2021/04/05 08:06:50;;;;;;;3.70;1.38;;;17.90;52.00;;;;;;4849441;29;20690;-68
2021/04/05 08:09:16;;;;;;;3.00;1.13;;;17.90;51.90;;;;;;4865529;29;20252;-66
2021/04/05 08:11:53;;;;;;;2.50;1.40;;;17.90;51.80;;;;;;4849067;29;20228;-75
2021/04/05 08:14:32;;;;;;;1.90;1.15;;;17.90;51.90;;;;;;4864704;29;20185;-66
2021/04/05 08:16:59;;;;;;;2.45;1.15;;;17.90;51.80;;;;;;4865068;29;20660;-67
2021/04/05 08:20:02;;;;;;;4.43;1.65;;;17.90;51.80;;;;;;4893100;29;20657;-66
2021/04/05 08:23:12;;;;;;;1.42;0.95;;;17.90;51.70;;;;;;4896134;29;20313;-75
2021/04/05 08:25:59;;;;;;;1.70;1.27;;;17.80;51.70;;;;;;4822720;29;20191;-67
2021/04/05 08:28:29;;;;;;;3.20;1.35;;;17.80;51.70;;;;;;4893871;29;20212;-68
2021/04/05 08:31:32;;;;;;;2.58;1.60;;;17.80;51.70;;;;;;4883051;29;20234;-66
2021/04/05 08:34:19;;;;;;;2.45;1.15;;;17.80;51.60;;;;;;4899473;29;20228;-66
2021/04/05 08:36:49;;;;;;;2.05;1.27;;;17.90;51.80;;;;;;4899073;29;20179;-67
2021/04/05 08:39:29;;;;;;;2.20;1.35;;;17.90;51.50;;;;;;4898377;29;20248;-63
2021/04/05 08:42:29;;;;;;;2.22;1.10;;;17.90;51.50;;;;;;4867744;29;20176;-68
2021/04/05 08:45:02;;;;;;;2.15;1.30;;;18.00;51.40;;;;;;4883714;29;20311;-68
2021/04/05 08:47:29;;;;;;;1.85;1.00;;;18.00;51.30;;;;;;4899174;29;20663;-68
2021/04/05 08:49:58;;;;;;;3.08;1.40;;;18.00;51.30;;;;;;4898917;29;20590;-66
2021/04/05 08:52:24;;;;;;;3.25;1.45;;;18.00;51.40;;;;;;4866744;29;20172;-67
2021/04/05 08:54:50;;;;;;;2.50;1.48;;;18.00;51.40;;;;;;4882361;29;20526;-67
2021/04/05 08:57:42;;;;;;;2.75;1.35;;;18.00;51.40;;;;;;4882224;29;20173;-67
2021/04/05 09:00:09;;;;;;;3.17;1.40;;;17.90;51.30;;;;;;4884630;29;20384;-66
2021/04/05 09:02:55;;;;;;;3.15;1.50;;;18.00;51.40;;;;;;4882490;29;20267;-68
2021/04/05 09:05:28;;;;;;;2.13;1.17;;;18.00;51.40;;;;;;4882615;29;20172;-67
2021/04/05 09:08:04;;;;;;;2.58;1.48;;;18.00;51.40;;;;;;4883160;29;20173;-67
2021/04/05 09:10:42;;;;;;;2.00;1.40;;;18.10;51.40;;;;;;4891630;29;20235;-70
2021/04/05 09:13:11;;;;;;;1.77;1.17;;;18.00;51.40;;;;;;4897552;29;20264;-67
2021/04/05 09:15:52;;;;;;;3.88;1.20;;;18.00;51.30;;;;;;4881619;29;20516;-66
2021/04/05 09:18:42;;;;;;;3.20;1.75;;;18.00;51.40;;;;;;4897266;29;20587;-65
2021/04/05 09:21:20;;;;;;;4.10;1.50;;;18.00;51.50;;;;;;4898744;29;20187;-68
2021/04/05 09:24:23;;;;;;;2.28;0.95;;;18.00;51.40;;;;;;4898953;29;20291;-69
2021/04/05 09:26:57;;;;;;;3.63;1.50;;;18.00;51.40;;;;;;4898655;29;20228;-69
2021/04/05 09:29:33;;;;;;;2.17;1.30;;;18.00;51.50;;;;;;4898271;29;20299;-68
2021/04/05 09:32:30;;;;;;;4.97;1.30;;;17.90;51.50;;;;;;4897998;29;20200;-69
2021/04/05 09:35:21;;;;;;;2.58;1.17;;;18.00;51.60;;;;;;4897499;29;20668;-68
2021/04/05 09:38:17;;;;;;;2.25;1.33;;;17.90;51.70;;;;;;4898200;29;20168;-66
2021/04/05 09:40:48;;;;;;;3.10;1.42;;;17.80;51.80;;;;;;4898233;29;20209;-72
2021/04/05 09:43:21;;;;;;;2.67;1.10;;;17.80;52.00;;;;;;4898382;29;20176;-69
2021/04/05 09:45:49;;;;;;;1.88;1.10;;;17.80;51.90;;;;;;4896602;29;20176;-68
2021/04/05 09:48:59;;;;;;;2.10;1.45;;;17.90;51.80;;;;;;4897267;29;20207;-68
2021/04/05 09:52:03;;;;;;;1.40;0.98;;;18.00;51.80;;;;;;4840253;29;20737;-68
2021/04/05 09:54:38;;;;;;;4.00;1.00;;;18.10;51.80;;;;;;4840297;29;20651;-68
2021/04/05 09:57:05;;;;;;;1.98;0.93;;;18.30;51.50;;;;;;4884861;29;20184;-69
2021/04/05 09:59:48;;;;;;;2.60;0.95;;;18.60;51.30;;;;;;4895949;29;20188;-68
2021/04/05 10:02:14;;;;;;;3.70;1.20;;;18.90;50.70;;;;;;4896899;29;20165;-69
2021/04/05 10:04:40;;;;;;;1.85;1.33;;;19.30;50.70;;;;;;4896607;29;20224;-69
2021/04/05 10:07:06;;;;;;;2.85;1.17;;;19.50;49.30;;;;;;4895953;29;20180;-68
2021/04/05 10:09:32;;;;;;;2.08;0.88;;;19.70;48.80;;;;;;4902521;29;20260;-69
2021/04/05 10:12:03;;;;;;;2.67;1.00;;;19.90;48.60;;;;;;4915412;29;20200;-69
2021/04/05 10:14:29;;;;;;;1.92;1.20;;;20.10;48.30;;;;;;4914459;29;20182;-70
2021/04/05 10:16:56;;;;;;;1.63;0.90;;;20.20;48.10;;;;;;4914661;29;20540;-69
2021/04/05 10:19:33;;;;;;;1.27;0.95;;;20.30;47.90;;;;;;4915113;29;20183;-68
2021/04/05 10:22:10;;;;;;;1.65;1.08;;;20.40;47.60;;;;;;4917865;29;20167;-66
2021/04/05 10:24:41;;;;;;;1.15;0.75;;;20.50;47.30;;;;;;4917518;29;20204;-67
2021/04/05 10:27:06;;;;;;;2.45;1.10;;;20.40;47.10;;;;;;4899314;29;20636;-68
2021/04/05 10:29:33;;;;;;;2.63;1.10;;;20.40;47.40;;;;;;4914386;29;20215;-68
2021/04/05 10:32:01;;;;;;;2.10;0.80;;;20.30;47.60;;;;;;4915367;29;20227;-68
2021/04/05 10:34:27;;;;;;;3.00;1.30;;;20.30;47.70;;;;;;4915511;29;20259;-68
2021/04/05 10:37:16;;;;;;;2.38;0.90;;;20.30;47.80;;;;;;4915266;29;20304;-69
2021/04/05 10:39:48;;;;;;;1.15;0.73;;;20.30;47.90;;;;;;4914942;29;20259;-67
2021/04/05 10:42:20;;;;;;;2.15;0.80;;;20.30;48.40;;;;;;4914641;29;20180;-68
2021/04/05 10:44:46;;;;;;;1.17;1.08;;;20.40;48.20;;;;;;4915233;29;20180;-68
2021/04/05 10:47:17;;;;;;;2.05;0.85;;;20.40;48.10;;;;;;4915059;29;20240;-69
2021/04/05 10:49:43;;;;;;;1.73;0.70;;;20.40;48.10;;;;;;4913426;29;20211;-68
2021/04/05 10:52:12;;;;;;;3.05;0.98;;;20.50;48.10;;;;;;4915118;29;20191;-67
2021/04/05 10:54:42;;;;;;;2.35;1.10;;;20.50;48.10;;;;;;4914741;29;20188;-68
2021/04/05 10:57:12;;;;;;;2.20;1.10;;;20.60;48.00;;;;;;4914450;29;20187;-68
2021/04/05 10:59:45;;;;;;;2.15;0.98;;;20.50;48.00;;;;;;4914728;29;20719;-68
2021/04/05 11:02:32;;;;;;;2.75;1.08;;;20.60;47.80;;;;;;4915123;29;20172;-71
2021/04/05 11:05:02;;;;;;;2.42;1.17;;;20.50;47.30;;;;;;4889861;29;20223;-68
2021/04/05 11:07:30;;;;;;;3.17;1.00;;;20.50;47.10;;;;;;4915278;29;20172;-62
2021/04/05 11:09:57;;;;;;;1.55;0.75;;;20.50;47.00;;;;;;4914247;29;20337;-68
2021/04/05 11:12:23;;;;;;;1.50;0.80;;;20.50;46.90;;;;;;4914541;29;20228;-67
2021/04/05 11:14:49;;;;;;;1.88;0.90;;;20.40;47.00;;;;;;4914681;29;20188;-70
2021/04/05 11:17:15;;;;;;;1.77;0.90;;;20.40;47.90;;;;;;4914314;29;20174;-67
2021/04/05 11:19:49;;;;;;;2.67;1.00;;;20.40;47.30;;;;;;4914578;29;20251;-67
2021/04/05 11:22:21;;;;;;;1.35;0.80;;;20.40;47.60;;;;;;4915004;29;20556;-67
2021/04/05 11:25:07;;;;;;;2.15;1.10;;;20.30;47.70;;;;;;4914117;29;20223;-67
2021/04/05 11:27:39;;;;;;;2.35;1.00;;;20.30;47.80;;;;;;4915733;29;20183;-67
2021/04/05 11:30:05;;;;;;;2.90;0.80;;;20.20;48.00;;;;;;4898816;29;20219;-66
2021/04/05 11:32:32;;;;;;;2.47;1.02;;;20.30;48.00;;;;;;4913846;29;20172;-66
2021/04/05 11:34:58;;;;;;;2.30;0.88;;;20.30;48.00;;;;;;4914618;29;20176;-68
2021/04/05 11:37:30;;;;;;;3.65;0.98;;;20.30;48.10;;;;;;4914411;29;20691;-71
2021/04/05 11:40:09;;;;;;;1.75;1.08;;;20.30;47.90;;;;;;4914237;29;20659;-68
2021/04/05 11:42:37;;;;;;;3.38;1.05;;;20.50;47.60;;;;;;4914380;29;20187;-75
2021/04/05 11:45:03;;;;;;;1.70;0.90;;;20.60;47.60;;;;;;4914107;29;20621;-79
2021/04/05 11:47:33;;;;;;;2.55;0.75;;;20.60;47.50;;;;;;4914389;29;20184;-74
2021/04/05 11:49:59;;;;;;;2.15;0.80;;;20.70;47.40;;;;;;4914849;29;20311;-68
2021/04/05 11:52:42;;;;;;;3.13;0.90;;;20.90;47.40;;;;;;4898398;29;20199;-75
2021/04/05 11:55:08;;;;;;;1.83;0.65;;;20.80;47.30;;;;;;4914649;29;20176;-74
2021/04/05 11:57:41;;;;;;;3.53;1.10;;;20.90;47.40;;;;;;4914567;29;20180;-76
2021/04/05 12:00:10;;;;;;;2.33;0.68;;;20.80;47.50;;;;;;4899367;29;20175;-70
2021/04/05 12:02:50;;;;;;;3.22;1.25;;;20.90;47.20;;;;;;4917738;29;20254;-67
2021/04/05 12:05:28;;;;;;;3.65;0.82;;;20.90;47.60;;;;;;4917956;29;20199;-66
2021/04/05 12:08:02;;;;;;;2.63;0.73;;;20.80;46.90;;;;;;4917021;29;20203;-66
2021/04/05 12:10:28;;;;;;;1.70;0.80;;;20.80;46.90;;;;;;4917247;29;20706;-66
2021/04/05 12:13:00;;;;;;;3.30;0.93;;;20.70;47.00;;;;;;4917006;29;20176;-67
2021/04/05 12:15:26;;;;;;;2.55;0.90;;;20.70;47.10;;;;;;4917372;29;20220;-66
2021/04/05 12:17:52;;;;;;;1.63;1.00;;;20.70;47.00;;;;;;4917710;29;20203;-67
2021/04/05 12:20:23;;;;;;;2.33;0.88;;;20.60;47.00;;;;;;4917048;29;20179;-66
2021/04/05 12:22:52;;;;;;;1.30;0.82;;;20.70;47.00;;;;;;4917263;29;20671;-66
2021/04/05 12:25:21;;;;;;;1.38;0.90;;;20.70;47.10;;;;;;4917314;29;20184;-67
2021/04/05 12:27:47;;;;;;;1.95;0.73;;;20.60;47.10;;;;;;4916868;29;20187;-67
2021/04/05 12:30:24;;;;;;;1.05;0.80;;;20.60;47.10;;;;;;4917502;29;20572;-66
2021/04/05 12:32:51;;;;;;;2.83;1.25;;;20.60;47.20;;;;;;4917513;29;20172;-66
2021/04/05 12:35:17;;;;;;;1.85;1.00;;;20.50;47.20;;;;;;4916505;29;20168;-66
2021/04/05 12:37:43;;;;;;;2.13;1.35;;;20.30;47.50;;;;;;4916960;29;20179;-67
2021/04/05 12:40:09;;;;;;;3.30;0.98;;;20.20;47.70;;;;;;4901384;29;20172;-66
2021/04/05 12:42:37;;;;;;;3.42;0.88;;;20.10;47.90;;;;;;4916295;29;20184;-66
2021/04/05 12:45:07;;;;;;;2.95;0.80;;;20.00;47.80;;;;;;4916941;29;20172;-65
2021/04/05 12:47:34;;;;;;;1.52;1.10;;;20.00;47.80;;;;;;4916652;29;20180;-68
2021/04/05 12:50:06;;;;;;;2.20;0.70;;;19.90;47.80;;;;;;4908583;29;20233;-65
2021/04/05 12:52:33;;;;;;;1.83;0.90;;;20.10;47.60;;;;;;4903189;29;20176;-67
2021/04/05 12:55:02;;;;;;;0.93;0.68;;;20.20;47.30;;;;;;4884902;29;20180;-68
2021/04/05 12:57:30;;;;;;;1.30;0.73;;;20.30;47.20;;;;;;4884366;29;20543;-67
2021/04/05 12:59:56;;;;;;;4.28;0.95;;;20.40;47.10;;;;;;4916771;29;20184;-67
2021/04/05 13:02:22;;;;;;;1.42;0.77;;;20.40;47.10;;;;;;4916050;29;20543;-67
2021/04/05 13:04:59;;;;;;;1.13;0.73;;;20.40;46.90;;;;;;4900908;29;20183;-66
2021/04/05 13:07:34;;;;;;;1.45;0.70;;;20.40;46.90;;;;;;4903477;29;20172;-67
2021/04/05 13:10:18;;;;;;;1.20;0.70;;;20.30;46.90;;;;;;4865772;29;20247;-66
2021/04/05 13:12:46;;;;;;;1.80;0.77;;;20.30;47.00;;;;;;4881999;29;20204;-67
2021/04/05 13:15:21;;;;;;;1.73;0.90;;;20.40;46.90;;;;;;4866340;29;20241;-68
2021/04/05 13:17:50;;;;;;;1.98;0.90;;;20.50;46.80;;;;;;4882015;29;20173;-66